DAL1792 KMCO-KLGA
Flight info
| Callsign | DAL1792 |
|---|---|
| Flight time | 2h 11m |
| Altitude | 35000 |
| Route | FATHE4 VIYAP Q87 HURTS PROUD2 |
| Aircraft | A321/M-SDE3FGHIRWY/LB1 |
Departure
| Time | 2026-04-26 16:33 |
|---|---|
| Airport | Orlando International Airport (KMCO) |
Arrival
| Time | 2026-04-26 18:45 |
|---|---|
| Airport | LaGuardia Airport (KLGA) |
| Time | Latitude | Longitude | Altitude | Speed | Heading |
|---|---|---|---|---|---|
| 2026-04-26 16:04 | 28.42909 | -81.30057 | 103 ft | 0 kts | 182° |
| 2026-04-26 16:23 | 28.42912 | -81.30057 | 103 ft | 1 kts | 182° |
| 2026-04-26 16:23 | 28.42929 | -81.30055 | 103 ft | 3 kts | 186° |
| 2026-04-26 16:24 | 28.42950 | -81.30052 | 102 ft | 3 kts | 186° |
| 2026-04-26 16:24 | 28.42969 | -81.30052 | 103 ft | 3 kts | 161° |
| 2026-04-26 16:24 | 28.42978 | -81.30054 | 103 ft | 2 kts | 95° |
| 2026-04-26 16:24 | 28.42979 | -81.30057 | 103 ft | 0 kts | 89° |
| 2026-04-26 16:26 | 28.42979 | -81.30055 | 103 ft | 3 kts | 89° |
| 2026-04-26 16:26 | 28.42971 | -81.29994 | 103 ft | 10 kts | 109° |
| 2026-04-26 16:27 | 28.42941 | -81.29931 | 103 ft | 9 kts | 122° |
| 2026-04-26 16:27 | 28.42914 | -81.29872 | 103 ft | 8 kts | 105° |
| 2026-04-26 16:27 | 28.42912 | -81.29812 | 103 ft | 7 kts | 88° |
| 2026-04-26 16:27 | 28.42912 | -81.29774 | 104 ft | 3 kts | 89° |
| 2026-04-26 16:28 | 28.42911 | -81.29756 | 104 ft | 5 kts | 97° |
| 2026-04-26 16:28 | 28.42865 | -81.29707 | 104 ft | 15 kts | 165° |
| 2026-04-26 16:28 | 28.42825 | -81.29704 | 104 ft | 0 kts | 177° |
| 2026-04-26 16:29 | 28.42821 | -81.29703 | 104 ft | 1 kts | 177° |
| 2026-04-26 16:29 | 28.42796 | -81.29703 | 102 ft | 10 kts | 179° |
| 2026-04-26 16:29 | 28.42702 | -81.29702 | 101 ft | 11 kts | 179° |
| 2026-04-26 16:30 | 28.42626 | -81.29692 | 100 ft | 9 kts | 175° |
| 2026-04-26 16:30 | 28.42600 | -81.29710 | 101 ft | 2 kts | 306° |
| 2026-04-26 16:30 | 28.42644 | -81.29712 | 101 ft | 14 kts | 5° |
| 2026-04-26 16:30 | 28.42801 | -81.29705 | 104 ft | 24 kts | 0° |
| 2026-04-26 16:31 | 28.42962 | -81.29706 | 105 ft | 22 kts | 359° |
| 2026-04-26 16:31 | 28.43118 | -81.29708 | 104 ft | 22 kts | 359° |
| 2026-04-26 16:31 | 28.43262 | -81.29710 | 106 ft | 19 kts | 359° |
| 2026-04-26 16:31 | 28.43389 | -81.29712 | 106 ft | 16 kts | 359° |
| 2026-04-26 16:32 | 28.43442 | -81.29640 | 106 ft | 12 kts | 87° |
| 2026-04-26 16:32 | 28.43399 | -81.29588 | 107 ft | 10 kts | 172° |
| 2026-04-26 16:32 | 28.43377 | -81.29587 | 108 ft | 3 kts | 177° |
| 2026-04-26 16:32 | 28.43214 | -81.29584 | 107 ft | 57 kts | 180° |
| 2026-04-26 16:33 | 28.42603 | -81.29579 | 100 ft | 116 kts | 179° |
| 2026-04-26 16:33 | 28.41634 | -81.29572 | 108 ft | 160 kts | 180° |
| 2026-04-26 16:33 | 28.40488 | -81.29568 | 582 ft | 161 kts | 181° |
| 2026-04-26 16:33 | 28.39364 | -81.29512 | 1153 ft | 163 kts | 178° |
| 2026-04-26 16:34 | 28.38243 | -81.29302 | 1670 ft | 168 kts | 160° |
| 2026-04-26 16:34 | 28.37207 | -81.28587 | 2003 ft | 185 kts | 150° |
| 2026-04-26 16:34 | 28.36057 | -81.27724 | 2197 ft | 211 kts | 151° |
| 2026-04-26 16:34 | 28.34815 | -81.26759 | 2600 ft | 226 kts | 142° |
| 2026-04-26 16:35 | 28.33719 | -81.25333 | 2912 ft | 252 kts | 132° |
| 2026-04-26 16:35 | 28.32518 | -81.23784 | 3339 ft | 269 kts | 135° |
| 2026-04-26 16:35 | 28.31226 | -81.22215 | 4074 ft | 274 kts | 134° |
| 2026-04-26 16:35 | 28.30216 | -81.20352 | 4809 ft | 284 kts | 110° |
| 2026-04-26 16:36 | 28.29990 | -81.18118 | 5539 ft | 290 kts | 83° |
| 2026-04-26 16:36 | 28.30663 | -81.15964 | 6267 ft | 292 kts | 55° |
| 2026-04-26 16:36 | 28.32098 | -81.14364 | 6973 ft | 291 kts | 28° |
| 2026-04-26 16:36 | 28.33986 | -81.13641 | 7670 ft | 286 kts | 1° |
| 2026-04-26 16:37 | 28.35938 | -81.13886 | 8374 ft | 284 kts | 341° |
| 2026-04-26 16:37 | 28.37845 | -81.14481 | 9132 ft | 285 kts | 341° |
| 2026-04-26 16:37 | 28.39763 | -81.15083 | 9891 ft | 287 kts | 342° |
| 2026-04-26 16:37 | 28.41711 | -81.15694 | 10329 ft | 299 kts | 342° |
| 2026-04-26 16:38 | 28.43791 | -81.16345 | 10467 ft | 321 kts | 342° |
| 2026-04-26 16:38 | 28.46010 | -81.17038 | 10712 ft | 337 kts | 342° |
| 2026-04-26 16:38 | 28.48259 | -81.17735 | 11250 ft | 343 kts | 342° |
| 2026-04-26 16:38 | 28.50570 | -81.18446 | 11893 ft | 346 kts | 342° |
| 2026-04-26 16:39 | 28.52902 | -81.19163 | 12512 ft | 349 kts | 342° |
| 2026-04-26 16:39 | 28.55256 | -81.19887 | 13155 ft | 352 kts | 343° |
| 2026-04-26 16:39 | 28.57630 | -81.20617 | 13797 ft | 355 kts | 343° |
| 2026-04-26 16:39 | 28.60024 | -81.21353 | 14365 ft | 358 kts | 343° |
| 2026-04-26 16:40 | 28.62434 | -81.22096 | 14939 ft | 360 kts | 343° |
| 2026-04-26 16:40 | 28.64861 | -81.22848 | 15498 ft | 362 kts | 342° |
| 2026-04-26 16:40 | 28.67296 | -81.23608 | 15880 ft | 364 kts | 342° |
| 2026-04-26 16:40 | 28.69740 | -81.24373 | 15984 ft | 364 kts | 342° |
| 2026-04-26 16:41 | 28.72193 | -81.25138 | 16370 ft | 367 kts | 342° |
| 2026-04-26 16:41 | 28.74659 | -81.25906 | 16952 ft | 368 kts | 342° |
| 2026-04-26 16:41 | 28.77139 | -81.26675 | 17506 ft | 370 kts | 342° |
| 2026-04-26 16:41 | 28.79633 | -81.27450 | 18061 ft | 372 kts | 342° |
| 2026-04-26 16:42 | 28.82139 | -81.28231 | 18549 ft | 374 kts | 342° |
| 2026-04-26 16:42 | 28.84693 | -81.28873 | 18991 ft | 379 kts | 350° |
| 2026-04-26 16:42 | 28.87333 | -81.29120 | 19423 ft | 382 kts | 353° |
| 2026-04-26 16:42 | 28.89988 | -81.29341 | 19852 ft | 385 kts | 353° |
| 2026-04-26 16:43 | 28.92666 | -81.29567 | 20268 ft | 387 kts | 353° |
| 2026-04-26 16:43 | 28.95363 | -81.29798 | 20708 ft | 390 kts | 353° |
| 2026-04-26 16:43 | 28.98081 | -81.30032 | 21145 ft | 393 kts | 353° |
| 2026-04-26 16:43 | 29.00819 | -81.30279 | 21568 ft | 396 kts | 352° |
| 2026-04-26 16:44 | 29.03572 | -81.30569 | 21981 ft | 399 kts | 351° |
| 2026-04-26 16:44 | 29.06342 | -81.30889 | 22392 ft | 401 kts | 351° |
| 2026-04-26 16:44 | 29.09132 | -81.31219 | 22798 ft | 404 kts | 351° |
| 2026-04-26 16:44 | 29.11942 | -81.31533 | 23207 ft | 407 kts | 352° |
| 2026-04-26 16:45 | 29.14781 | -81.31764 | 23576 ft | 411 kts | 354° |
| 2026-04-26 16:45 | 29.17646 | -81.31932 | 23905 ft | 413 kts | 354° |
| 2026-04-26 16:45 | 29.20526 | -81.32070 | 24253 ft | 415 kts | 354° |
| 2026-04-26 16:45 | 29.23421 | -81.32205 | 24602 ft | 417 kts | 354° |
| 2026-04-26 16:46 | 29.26325 | -81.32350 | 24955 ft | 419 kts | 354° |
| 2026-04-26 16:46 | 29.29243 | -81.32507 | 25273 ft | 421 kts | 354° |
| 2026-04-26 16:46 | 29.32173 | -81.32678 | 25606 ft | 423 kts | 353° |
| 2026-04-26 16:46 | 29.35116 | -81.32857 | 25944 ft | 424 kts | 353° |
| 2026-04-26 16:47 | 29.38070 | -81.33040 | 26266 ft | 426 kts | 353° |
| 2026-04-26 16:47 | 29.41035 | -81.33224 | 26593 ft | 427 kts | 353° |
| 2026-04-26 16:47 | 29.44013 | -81.33410 | 26919 ft | 429 kts | 353° |
| 2026-04-26 16:47 | 29.47002 | -81.33595 | 27250 ft | 431 kts | 353° |
| 2026-04-26 16:48 | 29.50003 | -81.33777 | 27563 ft | 433 kts | 353° |
| 2026-04-26 16:48 | 29.53012 | -81.33957 | 27877 ft | 434 kts | 353° |
| 2026-04-26 16:48 | 29.56036 | -81.34138 | 28192 ft | 436 kts | 353° |
| 2026-04-26 16:48 | 29.59071 | -81.34320 | 28491 ft | 438 kts | 353° |
| 2026-04-26 16:49 | 29.62118 | -81.34503 | 28776 ft | 439 kts | 353° |
| 2026-04-26 16:49 | 29.65176 | -81.34690 | 29061 ft | 441 kts | 353° |
| 2026-04-26 16:49 | 29.68244 | -81.34874 | 29333 ft | 442 kts | 353° |
| 2026-04-26 16:49 | 29.71325 | -81.35050 | 29604 ft | 444 kts | 353° |
| 2026-04-26 16:50 | 29.74417 | -81.35226 | 29886 ft | 446 kts | 353° |
| 2026-04-26 16:50 | 29.77520 | -81.35404 | 30118 ft | 447 kts | 353° |
| 2026-04-26 16:50 | 29.80632 | -81.35583 | 30389 ft | 448 kts | 353° |
| 2026-04-26 16:50 | 29.83740 | -81.35757 | 30772 ft | 446 kts | 353° |
| 2026-04-26 16:51 | 29.86823 | -81.35927 | 31223 ft | 441 kts | 353° |
| 2026-04-26 16:51 | 29.89875 | -81.36098 | 31667 ft | 437 kts | 353° |
| 2026-04-26 16:51 | 29.92891 | -81.36268 | 32113 ft | 433 kts | 353° |
| 2026-04-26 16:51 | 29.95895 | -81.36439 | 32554 ft | 429 kts | 353° |
| 2026-04-26 16:52 | 29.98821 | -81.36607 | 32987 ft | 426 kts | 353° |
| 2026-04-26 16:52 | 30.00816 | -81.36724 | 33275 ft | 423 kts | 353° |
| 2026-04-26 16:52 | 30.04687 | -81.36949 | 33857 ft | 418 kts | 353° |
| 2026-04-26 16:52 | 30.07583 | -81.37115 | 34230 ft | 415 kts | 353° |
| 2026-04-26 16:53 | 30.10458 | -81.37279 | 34561 ft | 412 kts | 353° |
| 2026-04-26 16:53 | 30.13315 | -81.37442 | 34881 ft | 411 kts | 352° |
| 2026-04-26 16:53 | 30.19015 | -81.37773 | 34964 ft | 407 kts | 352° |
| 2026-04-26 16:54 | 30.24663 | -81.38098 | 34959 ft | 406 kts | 352° |
| 2026-04-26 16:54 | 30.30299 | -81.38427 | 34961 ft | 405 kts | 352° |
| 2026-04-26 16:55 | 30.35927 | -81.38761 | 34962 ft | 405 kts | 352° |
| 2026-04-26 16:55 | 30.41562 | -81.39095 | 34962 ft | 405 kts | 352° |
| 2026-04-26 16:56 | 30.50018 | -81.39572 | 34960 ft | 406 kts | 353° |
| 2026-04-26 16:57 | 30.55655 | -81.39860 | 34971 ft | 405 kts | 353° |
| 2026-04-26 16:57 | 30.64112 | -81.40308 | 34971 ft | 405 kts | 353° |
| 2026-04-26 16:58 | 30.68837 | -81.40561 | 34981 ft | 406 kts | 351° |
| 2026-04-26 16:59 | 30.78196 | -81.41048 | 34978 ft | 404 kts | 351° |
| 2026-04-26 17:00 | 30.89430 | -81.41643 | 34969 ft | 404 kts | 350° |
| 2026-04-26 17:00 | 30.97844 | -81.42094 | 34974 ft | 403 kts | 350° |
| 2026-04-26 17:01 | 31.03445 | -81.42401 | 34967 ft | 403 kts | 351° |
| 2026-04-26 17:01 | 31.09053 | -81.42694 | 34960 ft | 403 kts | 351° |
| 2026-04-26 17:02 | 31.14659 | -81.42988 | 34953 ft | 403 kts | 351° |
| 2026-04-26 17:02 | 31.20261 | -81.43286 | 34950 ft | 403 kts | 350° |
| 2026-04-26 17:03 | 31.25872 | -81.42871 | 34983 ft | 418 kts | 6° |
| 2026-04-26 17:03 | 31.28649 | -81.41727 | 34978 ft | 429 kts | 16° |
| 2026-04-26 17:03 | 31.31392 | -81.40226 | 34973 ft | 430 kts | 16° |
| 2026-04-26 17:04 | 31.36772 | -81.37304 | 34963 ft | 429 kts | 16° |
| 2026-04-26 17:04 | 31.42193 | -81.34365 | 34955 ft | 429 kts | 16° |
| 2026-04-26 17:05 | 31.47613 | -81.31428 | 34951 ft | 429 kts | 16° |
| 2026-04-26 17:05 | 31.53035 | -81.28480 | 34969 ft | 430 kts | 16° |
| 2026-04-26 17:06 | 31.58453 | -81.25532 | 34962 ft | 430 kts | 16° |
| 2026-04-26 17:06 | 31.63878 | -81.22581 | 34957 ft | 429 kts | 16° |
| 2026-04-26 17:07 | 31.69291 | -81.19616 | 34942 ft | 429 kts | 16° |
| 2026-04-26 17:07 | 31.74703 | -81.16650 | 34935 ft | 429 kts | 16° |
| 2026-04-26 17:08 | 31.80119 | -81.13688 | 34935 ft | 430 kts | 16° |
| 2026-04-26 17:08 | 31.85543 | -81.10721 | 34924 ft | 430 kts | 16° |
| 2026-04-26 17:09 | 31.89176 | -81.08730 | 34918 ft | 430 kts | 16° |
| 2026-04-26 17:09 | 31.96396 | -81.04760 | 34915 ft | 431 kts | 16° |
| 2026-04-26 17:10 | 32.01828 | -81.01764 | 34911 ft | 431 kts | 16° |
| 2026-04-26 17:10 | 32.07257 | -80.98737 | 34925 ft | 432 kts | 17° |
| 2026-04-26 17:11 | 32.12691 | -80.95685 | 34913 ft | 434 kts | 17° |
| 2026-04-26 17:11 | 32.18144 | -80.92616 | 34940 ft | 435 kts | 17° |
| 2026-04-26 17:12 | 32.26342 | -80.88016 | 34955 ft | 435 kts | 17° |
| 2026-04-26 17:13 | 32.33625 | -80.83929 | 34968 ft | 435 kts | 17° |
| 2026-04-26 17:14 | 32.41830 | -80.79299 | 34959 ft | 435 kts | 17° |
| 2026-04-26 17:14 | 32.50036 | -80.74662 | 34953 ft | 436 kts | 17° |
| 2026-04-26 17:15 | 32.58263 | -80.70015 | 34973 ft | 437 kts | 16° |
| 2026-04-26 17:16 | 32.63750 | -80.66913 | 34955 ft | 437 kts | 16° |
| 2026-04-26 17:16 | 32.69238 | -80.63798 | 34955 ft | 438 kts | 16° |
| 2026-04-26 17:17 | 32.74726 | -80.60640 | 34949 ft | 439 kts | 17° |
| 2026-04-26 17:17 | 32.80176 | -80.57383 | 34938 ft | 439 kts | 18° |
| 2026-04-26 17:18 | 32.85625 | -80.54102 | 34968 ft | 439 kts | 17° |
| 2026-04-26 17:18 | 32.91085 | -80.50851 | 34971 ft | 438 kts | 17° |
| 2026-04-26 17:19 | 32.99225 | -80.46012 | 34963 ft | 438 kts | 17° |
| 2026-04-26 17:19 | 33.04673 | -80.42755 | 34966 ft | 438 kts | 17° |
| 2026-04-26 17:20 | 33.09233 | -80.40031 | 34980 ft | 438 kts | 17° |
| 2026-04-26 17:20 | 33.15559 | -80.36244 | 34976 ft | 438 kts | 17° |
| 2026-04-26 17:21 | 33.21004 | -80.32973 | 34975 ft | 438 kts | 18° |
| 2026-04-26 17:21 | 33.26455 | -80.29694 | 34972 ft | 438 kts | 17° |
| 2026-04-26 17:22 | 33.31910 | -80.26412 | 34999 ft | 439 kts | 18° |
| 2026-04-26 17:22 | 33.37364 | -80.23135 | 34995 ft | 438 kts | 18° |
| 2026-04-26 17:23 | 33.42815 | -80.19857 | 34990 ft | 439 kts | 18° |
| 2026-04-26 17:23 | 33.48267 | -80.16564 | 34995 ft | 439 kts | 18° |
| 2026-04-26 17:24 | 33.53718 | -80.13261 | 34990 ft | 439 kts | 19° |
| 2026-04-26 17:24 | 33.59182 | -80.09953 | 35007 ft | 440 kts | 19° |
| 2026-04-26 17:25 | 33.64653 | -80.06644 | 34986 ft | 440 kts | 19° |
| 2026-04-26 17:25 | 33.70126 | -80.03318 | 34977 ft | 441 kts | 19° |
| 2026-04-26 17:26 | 33.75605 | -79.99989 | 34976 ft | 441 kts | 19° |
| 2026-04-26 17:26 | 33.81076 | -79.96654 | 35015 ft | 441 kts | 19° |
| 2026-04-26 17:27 | 33.86518 | -79.93336 | 34998 ft | 441 kts | 19° |
| 2026-04-26 17:27 | 33.92032 | -79.89970 | 34998 ft | 442 kts | 19° |
| 2026-04-26 17:28 | 33.97476 | -79.86642 | 34999 ft | 442 kts | 19° |
| 2026-04-26 17:28 | 34.02955 | -79.83279 | 35000 ft | 442 kts | 19° |
| 2026-04-26 17:29 | 34.07545 | -79.80462 | 35028 ft | 442 kts | 19° |
| 2026-04-26 17:29 | 34.13918 | -79.76553 | 35011 ft | 443 kts | 20° |
| 2026-04-26 17:30 | 34.19408 | -79.73178 | 35000 ft | 444 kts | 20° |
| 2026-04-26 17:30 | 34.24908 | -79.69789 | 34991 ft | 444 kts | 20° |
| 2026-04-26 17:31 | 34.30412 | -79.66394 | 35030 ft | 444 kts | 20° |
| 2026-04-26 17:31 | 34.35923 | -79.62985 | 35004 ft | 445 kts | 20° |
| 2026-04-26 17:32 | 34.41444 | -79.59563 | 34995 ft | 446 kts | 20° |
| 2026-04-26 17:32 | 34.46972 | -79.56144 | 34990 ft | 446 kts | 20° |
| 2026-04-26 17:33 | 34.52505 | -79.52717 | 34995 ft | 447 kts | 20° |
| 2026-04-26 17:34 | 34.60749 | -79.47411 | 35015 ft | 449 kts | 23° |
| 2026-04-26 17:34 | 34.66198 | -79.43684 | 35013 ft | 450 kts | 24° |
| 2026-04-26 17:35 | 34.71658 | -79.39948 | 35011 ft | 451 kts | 24° |
| 2026-04-26 17:35 | 34.77107 | -79.36259 | 35005 ft | 452 kts | 23° |
| 2026-04-26 17:36 | 34.82614 | -79.32549 | 35019 ft | 453 kts | 24° |
| 2026-04-26 17:36 | 34.88123 | -79.28816 | 35014 ft | 453 kts | 24° |
| 2026-04-26 17:37 | 34.93634 | -79.25061 | 35013 ft | 454 kts | 24° |
| 2026-04-26 17:37 | 34.99144 | -79.21298 | 35018 ft | 454 kts | 24° |
| 2026-04-26 17:38 | 35.07410 | -79.15654 | 35035 ft | 454 kts | 25° |
| 2026-04-26 17:38 | 35.12925 | -79.11894 | 35025 ft | 455 kts | 25° |
| 2026-04-26 17:39 | 35.18444 | -79.08119 | 35040 ft | 454 kts | 25° |
| 2026-04-26 17:39 | 35.23960 | -79.04342 | 35029 ft | 454 kts | 25° |
| 2026-04-26 17:40 | 35.28554 | -79.01197 | 35041 ft | 456 kts | 26° |
| 2026-04-26 17:40 | 35.35022 | -78.96745 | 35033 ft | 457 kts | 26° |
| 2026-04-26 17:41 | 35.40564 | -78.92918 | 35056 ft | 458 kts | 26° |
| 2026-04-26 17:41 | 35.46119 | -78.89087 | 35062 ft | 458 kts | 26° |
| 2026-04-26 17:42 | 35.51680 | -78.85255 | 35064 ft | 458 kts | 26° |
| 2026-04-26 17:42 | 35.57235 | -78.81413 | 35065 ft | 458 kts | 26° |
| 2026-04-26 17:43 | 35.62787 | -78.77564 | 35057 ft | 458 kts | 26° |
| 2026-04-26 17:43 | 35.68336 | -78.73710 | 35058 ft | 458 kts | 26° |
| 2026-04-26 17:44 | 35.73893 | -78.69848 | 35081 ft | 459 kts | 27° |
| 2026-04-26 17:44 | 35.79451 | -78.65980 | 35057 ft | 459 kts | 27° |
| 2026-04-26 17:45 | 35.85018 | -78.62099 | 35047 ft | 460 kts | 27° |
| 2026-04-26 17:45 | 35.90592 | -78.58204 | 35076 ft | 461 kts | 27° |
| 2026-04-26 17:46 | 35.96180 | -78.54293 | 35106 ft | 462 kts | 27° |
| 2026-04-26 17:46 | 36.01770 | -78.50372 | 35118 ft | 462 kts | 27° |
| 2026-04-26 17:47 | 36.05470 | -78.47775 | 35121 ft | 462 kts | 27° |
| 2026-04-26 17:47 | 36.12950 | -78.42515 | 35123 ft | 462 kts | 27° |
| 2026-04-26 17:48 | 36.18495 | -78.38606 | 35137 ft | 462 kts | 27° |
| 2026-04-26 17:48 | 36.24083 | -78.34657 | 35130 ft | 462 kts | 28° |
| 2026-04-26 17:49 | 36.29660 | -78.30707 | 35126 ft | 461 kts | 28° |
| 2026-04-26 17:49 | 36.35237 | -78.26762 | 35121 ft | 462 kts | 28° |
| 2026-04-26 17:50 | 36.40347 | -78.21952 | 35114 ft | 464 kts | 42° |
| 2026-04-26 17:50 | 36.45037 | -78.16447 | 35119 ft | 464 kts | 42° |
| 2026-04-26 17:51 | 36.49727 | -78.10947 | 35115 ft | 463 kts | 42° |
| 2026-04-26 17:51 | 36.54405 | -78.05436 | 35121 ft | 463 kts | 42° |
| 2026-04-26 17:52 | 36.59079 | -77.99917 | 35191 ft | 463 kts | 42° |
| 2026-04-26 17:52 | 36.63747 | -77.94409 | 35196 ft | 463 kts | 42° |
| 2026-04-26 17:53 | 36.68411 | -77.88879 | 35171 ft | 463 kts | 42° |
| 2026-04-26 17:54 | 36.75432 | -77.80557 | 35143 ft | 465 kts | 42° |
| 2026-04-26 17:54 | 36.80119 | -77.74989 | 35147 ft | 465 kts | 42° |
| 2026-04-26 17:55 | 36.84804 | -77.69414 | 35161 ft | 465 kts | 42° |
| 2026-04-26 17:55 | 36.89476 | -77.63844 | 35157 ft | 464 kts | 42° |
| 2026-04-26 17:56 | 36.94120 | -77.58296 | 35144 ft | 464 kts | 42° |
| 2026-04-26 17:57 | 37.03464 | -77.47104 | 35139 ft | 466 kts | 43° |
| 2026-04-26 17:57 | 37.08149 | -77.41487 | 35167 ft | 466 kts | 42° |
| 2026-04-26 17:58 | 37.17494 | -77.30252 | 35165 ft | 465 kts | 43° |
| 2026-04-26 17:59 | 37.24488 | -77.21808 | 35159 ft | 465 kts | 43° |
| 2026-04-26 17:59 | 37.29150 | -77.16171 | 35159 ft | 466 kts | 42° |
| 2026-04-26 18:00 | 37.33815 | -77.10515 | 35163 ft | 466 kts | 43° |
| 2026-04-26 18:00 | 37.38477 | -77.04851 | 35161 ft | 466 kts | 43° |
| 2026-04-26 18:01 | 37.43132 | -76.99190 | 35163 ft | 466 kts | 42° |
| 2026-04-26 18:01 | 37.48190 | -76.94174 | 35177 ft | 461 kts | 27° |
| 2026-04-26 18:02 | 37.51983 | -76.91656 | 35172 ft | 460 kts | 25° |
| 2026-04-26 18:02 | 37.58558 | -76.87296 | 35183 ft | 459 kts | 25° |
| 2026-04-26 18:03 | 37.64208 | -76.83512 | 35146 ft | 461 kts | 25° |
| 2026-04-26 18:03 | 37.69874 | -76.79721 | 35133 ft | 462 kts | 25° |
| 2026-04-26 18:04 | 37.75575 | -76.75910 | 35129 ft | 464 kts | 25° |
| 2026-04-26 18:05 | 37.84137 | -76.70173 | 35149 ft | 465 kts | 25° |
| 2026-04-26 18:05 | 37.89855 | -76.66368 | 35164 ft | 465 kts | 24° |
| 2026-04-26 18:06 | 37.95631 | -76.62709 | 35171 ft | 463 kts | 23° |
| 2026-04-26 18:06 | 38.01405 | -76.59116 | 35181 ft | 462 kts | 23° |
| 2026-04-26 18:07 | 38.07154 | -76.55490 | 35183 ft | 461 kts | 24° |
| 2026-04-26 18:07 | 38.12876 | -76.51831 | 35202 ft | 460 kts | 24° |
| 2026-04-26 18:08 | 38.18554 | -76.48201 | 35172 ft | 459 kts | 24° |
| 2026-04-26 18:08 | 38.24271 | -76.44549 | 35162 ft | 460 kts | 24° |
| 2026-04-26 18:09 | 38.29919 | -76.40673 | 35156 ft | 464 kts | 32° |
| 2026-04-26 18:09 | 38.35068 | -76.35682 | 35172 ft | 465 kts | 35° |
| 2026-04-26 18:10 | 38.40197 | -76.30666 | 35174 ft | 464 kts | 35° |
| 2026-04-26 18:10 | 38.45322 | -76.25656 | 35171 ft | 464 kts | 35° |
| 2026-04-26 18:10 | 38.47877 | -76.23155 | 35001 ft | 463 kts | 35° |
| 2026-04-26 18:11 | 38.50433 | -76.20653 | 34761 ft | 463 kts | 35° |
| 2026-04-26 18:11 | 38.52986 | -76.18150 | 34537 ft | 462 kts | 35° |
| 2026-04-26 18:11 | 38.55533 | -76.15648 | 34302 ft | 461 kts | 35° |
| 2026-04-26 18:11 | 38.58072 | -76.13151 | 34050 ft | 461 kts | 35° |
| 2026-04-26 18:12 | 38.60621 | -76.10640 | 33776 ft | 464 kts | 35° |
| 2026-04-26 18:12 | 38.63181 | -76.08117 | 33505 ft | 465 kts | 34° |
| 2026-04-26 18:12 | 38.65768 | -76.05625 | 33233 ft | 466 kts | 34° |
| 2026-04-26 18:12 | 38.68372 | -76.03184 | 32838 ft | 462 kts | 33° |
| 2026-04-26 18:13 | 38.70970 | -76.00789 | 32240 ft | 460 kts | 33° |
| 2026-04-26 18:13 | 38.73562 | -75.98410 | 31710 ft | 457 kts | 32° |
| 2026-04-26 18:13 | 38.76140 | -75.96034 | 31131 ft | 456 kts | 32° |
| 2026-04-26 18:13 | 38.77840 | -75.94458 | 30763 ft | 454 kts | 33° |
| 2026-04-26 18:14 | 38.81242 | -75.91279 | 29966 ft | 451 kts | 33° |
| 2026-04-26 18:14 | 38.83768 | -75.88902 | 29405 ft | 447 kts | 33° |
| 2026-04-26 18:14 | 38.86255 | -75.86556 | 28865 ft | 442 kts | 33° |
| 2026-04-26 18:14 | 38.88722 | -75.84229 | 28332 ft | 438 kts | 33° |
| 2026-04-26 18:15 | 38.91165 | -75.81924 | 27807 ft | 433 kts | 33° |
| 2026-04-26 18:15 | 38.93583 | -75.79644 | 27305 ft | 429 kts | 33° |
| 2026-04-26 18:15 | 38.95941 | -75.77420 | 26929 ft | 422 kts | 33° |
| 2026-04-26 18:15 | 38.98270 | -75.75222 | 26798 ft | 411 kts | 33° |
| 2026-04-26 18:16 | 39.00559 | -75.73061 | 26591 ft | 406 kts | 33° |
| 2026-04-26 18:16 | 39.05070 | -75.68790 | 26186 ft | 401 kts | 33° |
| 2026-04-26 18:16 | 39.07309 | -75.66672 | 25983 ft | 398 kts | 32° |
| 2026-04-26 18:17 | 39.09535 | -75.64567 | 25788 ft | 396 kts | 32° |
| 2026-04-26 18:17 | 39.11748 | -75.62471 | 25594 ft | 394 kts | 33° |
| 2026-04-26 18:17 | 39.13947 | -75.60383 | 25403 ft | 391 kts | 32° |
| 2026-04-26 18:17 | 39.16130 | -75.58306 | 25196 ft | 389 kts | 32° |
| 2026-04-26 18:18 | 39.18297 | -75.56241 | 25003 ft | 386 kts | 32° |
| 2026-04-26 18:18 | 39.20450 | -75.54187 | 24808 ft | 384 kts | 32° |
| 2026-04-26 18:18 | 39.22593 | -75.52141 | 24618 ft | 382 kts | 32° |
| 2026-04-26 18:18 | 39.24737 | -75.50129 | 24426 ft | 380 kts | 31° |
| 2026-04-26 18:19 | 39.26897 | -75.48185 | 24238 ft | 377 kts | 31° |
| 2026-04-26 18:19 | 39.29062 | -75.46283 | 24051 ft | 376 kts | 30° |
| 2026-04-26 18:19 | 39.31221 | -75.44400 | 23864 ft | 373 kts | 30° |
| 2026-04-26 18:19 | 39.33368 | -75.42527 | 23694 ft | 371 kts | 30° |
| 2026-04-26 18:20 | 39.35498 | -75.40655 | 23460 ft | 369 kts | 30° |
| 2026-04-26 18:20 | 39.37609 | -75.38786 | 23295 ft | 367 kts | 30° |
| 2026-04-26 18:20 | 39.39705 | -75.36921 | 23111 ft | 366 kts | 30° |
| 2026-04-26 18:20 | 39.41093 | -75.35685 | 22992 ft | 365 kts | 30° |
| 2026-04-26 18:21 | 39.43884 | -75.33199 | 22744 ft | 364 kts | 30° |
| 2026-04-26 18:21 | 39.45961 | -75.31346 | 22569 ft | 362 kts | 30° |
| 2026-04-26 18:21 | 39.48033 | -75.29496 | 22384 ft | 361 kts | 30° |
| 2026-04-26 18:21 | 39.50096 | -75.27654 | 22208 ft | 360 kts | 30° |
| 2026-04-26 18:22 | 39.52152 | -75.25805 | 21872 ft | 360 kts | 31° |
| 2026-04-26 18:22 | 39.54176 | -75.23931 | 21475 ft | 356 kts | 31° |
| 2026-04-26 18:22 | 39.56175 | -75.22049 | 21083 ft | 353 kts | 31° |
| 2026-04-26 18:22 | 39.58144 | -75.20184 | 20701 ft | 350 kts | 31° |
| 2026-04-26 18:23 | 39.60107 | -75.18320 | 20327 ft | 348 kts | 31° |
| 2026-04-26 18:23 | 39.62051 | -75.16481 | 19952 ft | 345 kts | 31° |
| 2026-04-26 18:23 | 39.63988 | -75.14654 | 19579 ft | 343 kts | 31° |
| 2026-04-26 18:23 | 39.65914 | -75.12844 | 19203 ft | 341 kts | 31° |
| 2026-04-26 18:24 | 39.67804 | -75.11072 | 18842 ft | 338 kts | 31° |
| 2026-04-26 18:24 | 39.69727 | -75.09339 | 18473 ft | 335 kts | 29° |
| 2026-04-26 18:24 | 39.71665 | -75.07671 | 18082 ft | 333 kts | 28° |
| 2026-04-26 18:24 | 39.73601 | -75.06037 | 17730 ft | 331 kts | 28° |
| 2026-04-26 18:25 | 39.75534 | -75.04408 | 17359 ft | 331 kts | 28° |
| 2026-04-26 18:25 | 39.77461 | -75.02776 | 17000 ft | 330 kts | 28° |
| 2026-04-26 18:25 | 39.79373 | -75.01148 | 16643 ft | 328 kts | 29° |
| 2026-04-26 18:25 | 39.81278 | -74.99511 | 16289 ft | 327 kts | 29° |
| 2026-04-26 18:26 | 39.83168 | -74.97877 | 15936 ft | 326 kts | 29° |
| 2026-04-26 18:26 | 39.85051 | -74.96248 | 15585 ft | 324 kts | 30° |
| 2026-04-26 18:26 | 39.86911 | -74.94601 | 15238 ft | 323 kts | 30° |
| 2026-04-26 18:26 | 39.88768 | -74.92920 | 14717 ft | 326 kts | 31° |
| 2026-04-26 18:27 | 39.90612 | -74.91230 | 14345 ft | 322 kts | 31° |
| 2026-04-26 18:27 | 39.92390 | -74.89463 | 13998 ft | 322 kts | 39° |
| 2026-04-26 18:27 | 39.93927 | -74.87334 | 13617 ft | 322 kts | 44° |
| 2026-04-26 18:27 | 39.95424 | -74.85180 | 13266 ft | 319 kts | 44° |
| 2026-04-26 18:28 | 39.96911 | -74.83045 | 12918 ft | 317 kts | 44° |
| 2026-04-26 18:28 | 39.98390 | -74.80926 | 12574 ft | 314 kts | 44° |
| 2026-04-26 18:28 | 39.99857 | -74.78821 | 12230 ft | 312 kts | 44° |
| 2026-04-26 18:28 | 40.01309 | -74.76740 | 11964 ft | 306 kts | 44° |
| 2026-04-26 18:29 | 40.02716 | -74.74722 | 11833 ft | 295 kts | 44° |
| 2026-04-26 18:29 | 40.04080 | -74.72763 | 11516 ft | 290 kts | 44° |
| 2026-04-26 18:29 | 40.05436 | -74.70818 | 11160 ft | 288 kts | 44° |
| 2026-04-26 18:29 | 40.06775 | -74.68896 | 10807 ft | 286 kts | 45° |
| 2026-04-26 18:30 | 40.08108 | -74.66983 | 10453 ft | 284 kts | 45° |
| 2026-04-26 18:30 | 40.09431 | -74.65086 | 10120 ft | 281 kts | 45° |
| 2026-04-26 18:30 | 40.10725 | -74.63228 | 9790 ft | 278 kts | 45° |
| 2026-04-26 18:30 | 40.12016 | -74.61376 | 9567 ft | 274 kts | 45° |
| 2026-04-26 18:31 | 40.13297 | -74.59532 | 9362 ft | 273 kts | 45° |
| 2026-04-26 18:31 | 40.14573 | -74.57697 | 9159 ft | 272 kts | 45° |
| 2026-04-26 18:31 | 40.15844 | -74.55867 | 8962 ft | 271 kts | 46° |
| 2026-04-26 18:31 | 40.17105 | -74.54045 | 8756 ft | 270 kts | 46° |
| 2026-04-26 18:32 | 40.18365 | -74.52226 | 8560 ft | 269 kts | 46° |
| 2026-04-26 18:32 | 40.19617 | -74.50412 | 8356 ft | 268 kts | 46° |
| 2026-04-26 18:32 | 40.20879 | -74.48629 | 8172 ft | 266 kts | 44° |
| 2026-04-26 18:32 | 40.22193 | -74.46924 | 7962 ft | 265 kts | 43° |
| 2026-04-26 18:33 | 40.23523 | -74.45258 | 7777 ft | 264 kts | 42° |
| 2026-04-26 18:33 | 40.24853 | -74.43609 | 7585 ft | 262 kts | 42° |
| 2026-04-26 18:33 | 40.26177 | -74.41967 | 7387 ft | 263 kts | 43° |
| 2026-04-26 18:33 | 40.27492 | -74.40329 | 7192 ft | 260 kts | 43° |
| 2026-04-26 18:34 | 40.28800 | -74.38689 | 6996 ft | 260 kts | 43° |
| 2026-04-26 18:34 | 40.30098 | -74.37056 | 6813 ft | 259 kts | 44° |
| 2026-04-26 18:34 | 40.31395 | -74.35419 | 6632 ft | 257 kts | 44° |
| 2026-04-26 18:34 | 40.32671 | -74.33793 | 6426 ft | 255 kts | 44° |
| 2026-04-26 18:35 | 40.33936 | -74.32186 | 6225 ft | 254 kts | 43° |
| 2026-04-26 18:35 | 40.35207 | -74.30574 | 6033 ft | 254 kts | 44° |
| 2026-04-26 18:35 | 40.36474 | -74.28962 | 5849 ft | 253 kts | 44° |
| 2026-04-26 18:35 | 40.37736 | -74.27360 | 5664 ft | 252 kts | 44° |
| 2026-04-26 18:36 | 40.39000 | -74.25761 | 5476 ft | 252 kts | 44° |
| 2026-04-26 18:36 | 40.40254 | -74.24174 | 5287 ft | 250 kts | 44° |
| 2026-04-26 18:36 | 40.41507 | -74.22585 | 5107 ft | 250 kts | 44° |
| 2026-04-26 18:36 | 40.42752 | -74.21007 | 4915 ft | 249 kts | 44° |
| 2026-04-26 18:37 | 40.43993 | -74.19430 | 4734 ft | 248 kts | 44° |
| 2026-04-26 18:37 | 40.45228 | -74.17858 | 4532 ft | 246 kts | 44° |
| 2026-04-26 18:37 | 40.46455 | -74.16294 | 4355 ft | 245 kts | 44° |
| 2026-04-26 18:37 | 40.47684 | -74.14730 | 4170 ft | 246 kts | 44° |
| 2026-04-26 18:38 | 40.48912 | -74.13169 | 3989 ft | 245 kts | 44° |
| 2026-04-26 18:38 | 40.50136 | -74.11608 | 3813 ft | 245 kts | 44° |
| 2026-04-26 18:38 | 40.51358 | -74.10051 | 3645 ft | 244 kts | 44° |
| 2026-04-26 18:38 | 40.52695 | -74.08693 | 3450 ft | 243 kts | 33° |
| 2026-04-26 18:39 | 40.54099 | -74.07512 | 3266 ft | 242 kts | 33° |
| 2026-04-26 18:39 | 40.55533 | -74.06300 | 3086 ft | 241 kts | 33° |
| 2026-04-26 18:39 | 40.56892 | -74.05148 | 2951 ft | 231 kts | 34° |
| 2026-04-26 18:39 | 40.58213 | -74.04024 | 2817 ft | 222 kts | 34° |
| 2026-04-26 18:40 | 40.59480 | -74.02948 | 2680 ft | 213 kts | 34° |
| 2026-04-26 18:40 | 40.60703 | -74.01919 | 2541 ft | 205 kts | 33° |
| 2026-04-26 18:40 | 40.61903 | -74.00913 | 2276 ft | 203 kts | 33° |
| 2026-04-26 18:40 | 40.63062 | -73.99939 | 2148 ft | 192 kts | 33° |
| 2026-04-26 18:41 | 40.64172 | -73.99005 | 1896 ft | 188 kts | 33° |
| 2026-04-26 18:41 | 40.65268 | -73.98067 | 1714 ft | 189 kts | 34° |
| 2026-04-26 18:41 | 40.66368 | -73.97125 | 1709 ft | 189 kts | 33° |
| 2026-04-26 18:41 | 40.67444 | -73.96228 | 1720 ft | 173 kts | 33° |
| 2026-04-26 18:42 | 40.68402 | -73.95438 | 1709 ft | 154 kts | 33° |
| 2026-04-26 18:42 | 40.69289 | -73.94705 | 1716 ft | 147 kts | 33° |
| 2026-04-26 18:42 | 40.70148 | -73.93998 | 1713 ft | 146 kts | 32° |
| 2026-04-26 18:42 | 40.71004 | -73.93291 | 1711 ft | 146 kts | 32° |
| 2026-04-26 18:43 | 40.71840 | -73.92602 | 1572 ft | 138 kts | 33° |
| 2026-04-26 18:43 | 40.72642 | -73.91940 | 1226 ft | 134 kts | 33° |
| 2026-04-26 18:43 | 40.73430 | -73.91291 | 982 ft | 133 kts | 34° |
| 2026-04-26 18:43 | 40.74214 | -73.90644 | 757 ft | 133 kts | 34° |
| 2026-04-26 18:44 | 40.74994 | -73.90003 | 556 ft | 131 kts | 34° |
| 2026-04-26 18:44 | 40.75770 | -73.89368 | 374 ft | 131 kts | 35° |
| 2026-04-26 18:44 | 40.76536 | -73.88723 | 172 ft | 132 kts | 35° |
| 2026-04-26 18:44 | 40.77309 | -73.88089 | 27 ft | 128 kts | 34° |
| 2026-04-26 18:45 | 40.77802 | -73.87682 | 23 ft | 35 kts | 32° |
| 2026-04-26 18:45 | 40.77891 | -73.87554 | 18 ft | 15 kts | 111° |
| 2026-04-26 18:45 | 40.77875 | -73.87508 | 17 ft | 0 kts | 117° |
| 2026-04-26 18:46 | 40.77865 | -73.87483 | 16 ft | 10 kts | 119° |
| 2026-04-26 18:47 | 40.77803 | -73.87403 | 14 ft | 13 kts | 158° |
| 2026-04-26 18:47 | 40.77774 | -73.87321 | 15 ft | 12 kts | 101° |
| 2026-04-26 18:47 | 40.77733 | -73.87183 | 16 ft | 18 kts | 121° |
| 2026-04-26 18:47 | 40.77667 | -73.87045 | 16 ft | 18 kts | 124° |
| 2026-04-26 18:48 | 40.77595 | -73.86904 | 14 ft | 19 kts | 121° |
| 2026-04-26 18:48 | 40.77523 | -73.86759 | 13 ft | 19 kts | 129° |
| 2026-04-26 18:48 | 40.77449 | -73.86615 | 13 ft | 15 kts | 122° |
| 2026-04-26 18:48 | 40.77381 | -73.86564 | 19 ft | 8 kts | 211° |
| 2026-04-26 18:49 | 40.77351 | -73.86589 | 21 ft | 4 kts | 212° |
| 2026-04-26 18:49 | 40.77315 | -73.86586 | 20 ft | 6 kts | 155° |
| 2026-04-26 18:49 | 40.77296 | -73.86567 | 20 ft | 2 kts | 139° |
| 2026-04-26 18:49 | 40.77290 | -73.86560 | 20 ft | 0 kts | 137° |